sensor_id;sensor_type;location;lat;lon;timestamp;P1;durP1;ratioP1;P2;durP2;ratioP2
215;SDS011;64590;48.81286795;9.14184224;2023-05-15T00:00:40;12.03;;;8.03;;
215;SDS011;64590;48.81286795;9.14184224;2023-05-15T00:03:08;16.90;;;8.07;;
215;SDS011;64590;48.81286795;9.14184224;2023-05-15T00:05:36;12.30;;;8.23;;
215;SDS011;64590;48.81286795;9.14184224;2023-05-15T00:08:08;12.67;;;7.90;;
215;SDS011;64590;48.81286795;9.14184224;2023-05-15T00:10:36;15.17;;;10.20;;
215;SDS011;64590;48.81286795;9.14184224;2023-05-15T00:13:05;11.73;;;8.30;;
215;SDS011;64590;48.81286795;9.14184224;2023-05-15T00:15:33;11.73;;;8.33;;
215;SDS011;64590;48.81286795;9.14184224;2023-05-15T00:18:07;11.60;;;7.80;;
215;SDS011;64590;48.81286795;9.14184224;2023-05-15T00:20:35;11.33;;;7.83;;
215;SDS011;64590;48.81286795;9.14184224;2023-05-15T00:23:07;11.70;;;8.00;;
215;SDS011;64590;48.81286795;9.14184224;2023-05-15T00:25:35;12.20;;;7.70;;
215;SDS011;64590;48.81286795;9.14184224;2023-05-15T00:28:03;13.03;;;7.70;;
215;SDS011;64590;48.81286795;9.14184224;2023-05-15T00:30:34;14.27;;;7.93;;
215;SDS011;64590;48.81286795;9.14184224;2023-05-15T00:33:07;12.90;;;7.30;;
215;SDS011;64590;48.81286795;9.14184224;2023-05-15T00:35:36;12.13;;;7.80;;
215;SDS011;64590;48.81286795;9.14184224;2023-05-15T00:38:04;11.23;;;7.83;;
215;SDS011;64590;48.81286795;9.14184224;2023-05-15T00:40:33;11.40;;;7.60;;
215;SDS011;64590;48.81286795;9.14184224;2023-05-15T00:43:03;14.70;;;7.23;;
215;SDS011;64590;48.81286795;9.14184224;2023-05-15T00:45:35;11.00;;;7.43;;
215;SDS011;64590;48.81286795;9.14184224;2023-05-15T00:48:09;12.00;;;7.13;;
215;SDS011;64590;48.81286795;9.14184224;2023-05-15T00:50:37;12.40;;;7.77;;
215;SDS011;64590;48.81286795;9.14184224;2023-05-15T00:53:07;11.53;;;6.90;;
215;SDS011;64590;48.81286795;9.14184224;2023-05-15T00:55:39;11.87;;;6.90;;
215;SDS011;64590;48.81286795;9.14184224;2023-05-15T00:58:09;10.20;;;6.87;;
215;SDS011;64590;48.81286795;9.14184224;2023-05-15T01:00:41;9.60;;;6.90;;
215;SDS011;64590;48.81286795;9.14184224;2023-05-15T01:03:13;11.00;;;7.00;;
215;SDS011;64590;48.81286795;9.14184224;2023-05-15T01:05:44;10.60;;;6.90;;
215;SDS011;64590;48.81286795;9.14184224;2023-05-15T01:08:15;13.03;;;6.90;;
215;SDS011;64590;48.81286795;9.14184224;2023-05-15T01:10:49;10.40;;;7.27;;
215;SDS011;64590;48.81286795;9.14184224;2023-05-15T01:13:18;11.33;;;7.70;;
215;SDS011;64590;48.81286795;9.14184224;2023-05-15T01:15:49;9.00;;;6.53;;
215;SDS011;64590;48.81286795;9.14184224;2023-05-15T01:18:21;12.00;;;6.17;;
215;SDS011;64590;48.81286795;9.14184224;2023-05-15T01:20:55;10.43;;;7.27;;
215;SDS011;64590;48.81286795;9.14184224;2023-05-15T01:23:41;10.63;;;6.97;;
215;SDS011;64590;48.81286795;9.14184224;2023-05-15T01:29:32;11.60;;;8.03;;
215;SDS011;64590;48.81286795;9.14184224;2023-05-15T01:32:08;14.80;;;7.33;;
215;SDS011;64590;48.81286795;9.14184224;2023-05-15T01:34:42;11.23;;;7.20;;
215;SDS011;64590;48.81286795;9.14184224;2023-05-15T01:37:15;11.87;;;7.50;;
215;SDS011;64590;48.81286795;9.14184224;2023-05-15T01:39:51;10.47;;;7.30;;
215;SDS011;64590;48.81286795;9.14184224;2023-05-15T01:42:23;10.30;;;7.43;;
215;SDS011;64590;48.81286795;9.14184224;2023-05-15T01:45:00;14.17;;;8.20;;
215;SDS011;64590;48.81286795;9.14184224;2023-05-15T01:47:34;14.40;;;8.20;;
215;SDS011;64590;48.81286795;9.14184224;2023-05-15T01:50:12;11.23;;;8.13;;
215;SDS011;64590;48.81286795;9.14184224;2023-05-15T01:52:43;12.90;;;7.90;;
215;SDS011;64590;48.81286795;9.14184224;2023-05-15T01:55:14;14.97;;;9.00;;
215;SDS011;64590;48.81286795;9.14184224;2023-05-15T01:57:45;13.33;;;8.33;;
215;SDS011;64590;48.81286795;9.14184224;2023-05-15T02:00:17;11.10;;;8.40;;
215;SDS011;64590;48.81286795;9.14184224;2023-05-15T02:02:47;12.17;;;8.20;;
215;SDS011;64590;48.81286795;9.14184224;2023-05-15T02:05:17;13.70;;;8.40;;
215;SDS011;64590;48.81286795;9.14184224;2023-05-15T02:07:46;12.37;;;8.50;;
215;SDS011;64590;48.81286795;9.14184224;2023-05-15T02:10:18;16.63;;;8.47;;
215;SDS011;64590;48.81286795;9.14184224;2023-05-15T02:12:48;11.80;;;8.30;;
215;SDS011;64590;48.81286795;9.14184224;2023-05-15T02:15:22;12.77;;;8.67;;
215;SDS011;64590;48.81286795;9.14184224;2023-05-15T02:17:51;12.37;;;8.47;;
215;SDS011;64590;48.81286795;9.14184224;2023-05-15T02:20:23;11.00;;;7.93;;
215;SDS011;64590;48.81286795;9.14184224;2023-05-15T02:22:51;13.27;;;7.80;;
215;SDS011;64590;48.81286795;9.14184224;2023-05-15T02:25:20;16.90;;;8.73;;
215;SDS011;64590;48.81286795;9.14184224;2023-05-15T02:27:57;11.67;;;7.77;;
215;SDS011;64590;48.81286795;9.14184224;2023-05-15T02:30:34;11.60;;;7.83;;
215;SDS011;64590;48.81286795;9.14184224;2023-05-15T02:33:12;16.33;;;8.30;;
215;SDS011;64590;48.81286795;9.14184224;2023-05-15T02:35:46;12.20;;;7.87;;
215;SDS011;64590;48.81286795;9.14184224;2023-05-15T02:38:18;12.23;;;8.10;;
215;SDS011;64590;48.81286795;9.14184224;2023-05-15T02:40:52;11.10;;;7.67;;
215;SDS011;64590;48.81286795;9.14184224;2023-05-15T02:43:25;11.20;;;7.80;;
215;SDS011;64590;48.81286795;9.14184224;2023-05-15T02:45:57;11.17;;;8.10;;
215;SDS011;64590;48.81286795;9.14184224;2023-05-15T02:48:26;11.57;;;7.97;;
215;SDS011;64590;48.81286795;9.14184224;2023-05-15T02:50:56;12.13;;;8.17;;
215;SDS011;64590;48.81286795;9.14184224;2023-05-15T02:53:25;11.50;;;8.00;;
215;SDS011;64590;48.81286795;9.14184224;2023-05-15T02:55:53;11.03;;;8.00;;
215;SDS011;64590;48.81286795;9.14184224;2023-05-15T02:58:22;13.37;;;8.47;;
215;SDS011;64590;48.81286795;9.14184224;2023-05-15T03:00:53;11.83;;;8.13;;
215;SDS011;64590;48.81286795;9.14184224;2023-05-15T03:03:26;17.83;;;8.67;;
215;SDS011;64590;48.81286795;9.14184224;2023-05-15T03:05:55;13.43;;;8.30;;
215;SDS011;64590;48.81286795;9.14184224;2023-05-15T03:08:25;12.40;;;8.33;;
215;SDS011;64590;48.81286795;9.14184224;2023-05-15T03:10:55;13.27;;;8.63;;
215;SDS011;64590;48.81286795;9.14184224;2023-05-15T03:13:24;12.70;;;9.03;;
215;SDS011;64590;48.81286795;9.14184224;2023-05-15T03:15:52;13.20;;;8.27;;
215;SDS011;64590;48.81286795;9.14184224;2023-05-15T03:18:20;12.03;;;8.47;;
215;SDS011;64590;48.81286795;9.14184224;2023-05-15T03:20:51;12.67;;;8.17;;
215;SDS011;64590;48.81286795;9.14184224;2023-05-15T03:23:20;11.53;;;7.87;;
215;SDS011;64590;48.81286795;9.14184224;2023-05-15T03:25:49;15.43;;;8.43;;
215;SDS011;64590;48.81286795;9.14184224;2023-05-15T03:28:19;13.60;;;7.60;;
215;SDS011;64590;48.81286795;9.14184224;2023-05-15T03:30:47;13.40;;;7.73;;
215;SDS011;64590;48.81286795;9.14184224;2023-05-15T03:33:16;12.80;;;7.50;;
215;SDS011;64590;48.81286795;9.14184224;2023-05-15T03:35:45;13.93;;;8.07;;
215;SDS011;64590;48.81286795;9.14184224;2023-05-15T03:38:18;14.33;;;8.40;;
215;SDS011;64590;48.81286795;9.14184224;2023-05-15T03:40:47;12.50;;;7.67;;
215;SDS011;64590;48.81286795;9.14184224;2023-05-15T03:43:15;14.07;;;8.30;;
215;SDS011;64590;48.81286795;9.14184224;2023-05-15T03:45:44;12.63;;;8.03;;
215;SDS011;64590;48.81286795;9.14184224;2023-05-15T03:48:12;13.20;;;7.80;;
215;SDS011;64590;48.81286795;9.14184224;2023-05-15T03:50:41;11.57;;;7.60;;
215;SDS011;64590;48.81286795;9.14184224;2023-05-15T03:53:11;12.43;;;7.80;;
215;SDS011;64590;48.81286795;9.14184224;2023-05-15T03:55:42;10.20;;;7.50;;
215;SDS011;64590;48.81286795;9.14184224;2023-05-15T03:58:11;12.13;;;8.07;;
215;SDS011;64590;48.81286795;9.14184224;2023-05-15T04:00:39;12.27;;;8.10;;
215;SDS011;64590;48.81286795;9.14184224;2023-05-15T04:03:08;12.60;;;8.10;;
215;SDS011;64590;48.81286795;9.14184224;2023-05-15T04:05:36;14.13;;;8.00;;
215;SDS011;64590;48.81286795;9.14184224;2023-05-15T04:08:05;12.30;;;8.43;;
215;SDS011;64590;48.81286795;9.14184224;2023-05-15T04:10:35;10.60;;;7.80;;
215;SDS011;64590;48.81286795;9.14184224;2023-05-15T04:13:09;11.83;;;8.23;;
215;SDS011;64590;48.81286795;9.14184224;2023-05-15T04:15:38;14.63;;;8.43;;
215;SDS011;64590;48.81286795;9.14184224;2023-05-15T04:18:07;12.77;;;8.23;;
215;SDS011;64590;48.81286795;9.14184224;2023-05-15T04:20:35;13.07;;;8.10;;
215;SDS011;64590;48.81286795;9.14184224;2023-05-15T04:23:04;11.63;;;7.90;;
215;SDS011;64590;48.81286795;9.14184224;2023-05-15T04:25:33;14.30;;;8.67;;
215;SDS011;64590;48.81286795;9.14184224;2023-05-15T04:28:02;13.93;;;8.70;;
215;SDS011;64590;48.81286795;9.14184224;2023-05-15T04:30:33;13.10;;;8.37;;
215;SDS011;64590;48.81286795;9.14184224;2023-05-15T04:33:01;13.90;;;8.17;;
215;SDS011;64590;48.81286795;9.14184224;2023-05-15T04:35:33;13.40;;;8.83;;
215;SDS011;64590;48.81286795;9.14184224;2023-05-15T04:38:01;13.23;;;8.60;;
215;SDS011;64590;48.81286795;9.14184224;2023-05-15T04:40:30;15.23;;;9.40;;
215;SDS011;64590;48.81286795;9.14184224;2023-05-15T04:42:58;14.17;;;9.20;;
215;SDS011;64590;48.81286795;9.14184224;2023-05-15T04:45:28;14.43;;;9.80;;
215;SDS011;64590;48.81286795;9.14184224;2023-05-15T04:47:59;14.70;;;8.97;;
215;SDS011;64590;48.81286795;9.14184224;2023-05-15T04:50:27;17.87;;;9.70;;
215;SDS011;64590;48.81286795;9.14184224;2023-05-15T04:52:56;15.47;;;10.07;;
215;SDS011;64590;48.81286795;9.14184224;2023-05-15T04:55:24;16.30;;;9.70;;
215;SDS011;64590;48.81286795;9.14184224;2023-05-15T04:57:53;16.33;;;9.70;;
215;SDS011;64590;48.81286795;9.14184224;2023-05-15T05:00:21;16.70;;;10.30;;
215;SDS011;64590;48.81286795;9.14184224;2023-05-15T05:02:50;18.20;;;9.43;;
215;SDS011;64590;48.81286795;9.14184224;2023-05-15T05:05:21;16.13;;;9.87;;
215;SDS011;64590;48.81286795;9.14184224;2023-05-15T05:07:50;16.80;;;10.57;;
215;SDS011;64590;48.81286795;9.14184224;2023-05-15T05:10:18;16.47;;;9.90;;
215;SDS011;64590;48.81286795;9.14184224;2023-05-15T05:12:49;16.10;;;10.00;;
215;SDS011;64590;48.81286795;9.14184224;2023-05-15T05:15:18;16.60;;;9.47;;
215;SDS011;64590;48.81286795;9.14184224;2023-05-15T05:17:48;17.90;;;10.00;;
215;SDS011;64590;48.81286795;9.14184224;2023-05-15T05:20:17;16.87;;;9.80;;
215;SDS011;64590;48.81286795;9.14184224;2023-05-15T05:22:48;15.73;;;10.30;;
215;SDS011;64590;48.81286795;9.14184224;2023-05-15T05:25:16;20.50;;;10.23;;
215;SDS011;64590;48.81286795;9.14184224;2023-05-15T05:27:45;18.70;;;10.83;;
215;SDS011;64590;48.81286795;9.14184224;2023-05-15T05:30:14;16.60;;;10.00;;
215;SDS011;64590;48.81286795;9.14184224;2023-05-15T05:32:43;16.17;;;10.97;;
215;SDS011;64590;48.81286795;9.14184224;2023-05-15T05:35:13;19.47;;;10.70;;
215;SDS011;64590;48.81286795;9.14184224;2023-05-15T05:37:42;15.07;;;10.23;;
215;SDS011;64590;48.81286795;9.14184224;2023-05-15T05:40:13;15.13;;;10.43;;
215;SDS011;64590;48.81286795;9.14184224;2023-05-15T05:42:41;17.00;;;10.60;;
215;SDS011;64590;48.81286795;9.14184224;2023-05-15T05:45:11;16.70;;;10.37;;
215;SDS011;64590;48.81286795;9.14184224;2023-05-15T05:47:39;17.40;;;11.10;;
215;SDS011;64590;48.81286795;9.14184224;2023-05-15T05:50:08;16.10;;;11.13;;
215;SDS011;64590;48.81286795;9.14184224;2023-05-15T05:52:39;17.97;;;11.83;;
215;SDS011;64590;48.81286795;9.14184224;2023-05-15T05:55:07;20.70;;;12.10;;
215;SDS011;64590;48.81286795;9.14184224;2023-05-15T05:57:39;17.70;;;12.17;;
215;SDS011;64590;48.81286795;9.14184224;2023-05-15T06:00:09;17.37;;;11.83;;
215;SDS011;64590;48.81286795;9.14184224;2023-05-15T06:02:38;18.60;;;10.80;;
215;SDS011;64590;48.81286795;9.14184224;2023-05-15T06:05:07;17.90;;;11.53;;
215;SDS011;64590;48.81286795;9.14184224;2023-05-15T06:07:36;16.77;;;10.73;;
215;SDS011;64590;48.81286795;9.14184224;2023-05-15T06:10:05;19.90;;;11.23;;
215;SDS011;64590;48.81286795;9.14184224;2023-05-15T06:12:34;16.63;;;10.90;;
215;SDS011;64590;48.81286795;9.14184224;2023-05-15T06:15:08;16.63;;;11.30;;
215;SDS011;64590;48.81286795;9.14184224;2023-05-15T06:17:37;15.70;;;11.30;;
215;SDS011;64590;48.81286795;9.14184224;2023-05-15T07:44:57;13.57;;;8.03;;
215;SDS011;64590;48.81286795;9.14184224;2023-05-15T07:47:25;10.90;;;7.50;;
215;SDS011;64590;48.81286795;9.14184224;2023-05-15T07:49:53;11.00;;;7.70;;
215;SDS011;64590;48.81286795;9.14184224;2023-05-15T07:52:22;11.50;;;7.80;;
215;SDS011;64590;48.81286795;9.14184224;2023-05-15T07:54:50;15.13;;;7.63;;
215;SDS011;64590;48.81286795;9.14184224;2023-05-15T07:57:19;13.60;;;6.87;;
215;SDS011;64590;48.81286795;9.14184224;2023-05-15T07:59:47;11.70;;;7.78;;
215;SDS011;64590;48.81286795;9.14184224;2023-05-15T08:02:18;12.13;;;6.80;;
215;SDS011;64590;48.81286795;9.14184224;2023-05-15T08:04:46;9.60;;;7.07;;
215;SDS011;64590;48.81286795;9.14184224;2023-05-15T08:07:15;12.10;;;6.70;;
215;SDS011;64590;48.81286795;9.14184224;2023-05-15T08:09:43;13.07;;;6.80;;
215;SDS011;64590;48.81286795;9.14184224;2023-05-15T08:12:15;9.20;;;6.63;;
215;SDS011;64590;48.81286795;9.14184224;2023-05-15T08:14:46;9.30;;;6.70;;
215;SDS011;64590;48.81286795;9.14184224;2023-05-15T08:17:17;15.90;;;7.17;;
215;SDS011;64590;48.81286795;9.14184224;2023-05-15T08:19:47;9.03;;;6.47;;
215;SDS011;64590;48.81286795;9.14184224;2023-05-15T08:22:15;11.93;;;7.00;;
215;SDS011;64590;48.81286795;9.14184224;2023-05-15T08:24:44;12.50;;;7.53;;
215;SDS011;64590;48.81286795;9.14184224;2023-05-15T08:27:13;11.73;;;6.53;;
215;SDS011;64590;48.81286795;9.14184224;2023-05-15T08:29:41;10.33;;;6.60;;
215;SDS011;64590;48.81286795;9.14184224;2023-05-15T08:32:10;11.30;;;7.20;;
215;SDS011;64590;48.81286795;9.14184224;2023-05-15T08:34:44;12.33;;;7.20;;
215;SDS011;64590;48.81286795;9.14184224;2023-05-15T08:37:12;9.70;;;6.37;;
215;SDS011;64590;48.81286795;9.14184224;2023-05-15T08:39:44;8.10;;;6.20;;
215;SDS011;64590;48.81286795;9.14184224;2023-05-15T08:42:13;9.07;;;6.30;;
215;SDS011;64590;48.81286795;9.14184224;2023-05-15T08:44:47;9.27;;;6.70;;
215;SDS011;64590;48.81286795;9.14184224;2023-05-15T08:47:15;9.63;;;6.47;;
215;SDS011;64590;48.81286795;9.14184224;2023-05-15T08:49:54;11.30;;;6.80;;
215;SDS011;64590;48.81286795;9.14184224;2023-05-15T08:52:29;9.27;;;6.77;;
215;SDS011;64590;48.81286795;9.14184224;2023-05-15T08:54:57;11.53;;;7.00;;
215;SDS011;64590;48.81286795;9.14184224;2023-05-15T08:57:26;10.13;;;6.80;;
215;SDS011;64590;48.81286795;9.14184224;2023-05-15T08:59:56;10.40;;;7.00;;
215;SDS011;64590;48.81286795;9.14184224;2023-05-15T09:02:25;15.00;;;7.40;;
215;SDS011;64590;48.81286795;9.14184224;2023-05-15T09:04:58;11.30;;;7.07;;
215;SDS011;64590;48.81286795;9.14184224;2023-05-15T09:07:28;9.70;;;7.00;;
215;SDS011;64590;48.81286795;9.14184224;2023-05-15T09:09:57;11.67;;;7.13;;
215;SDS011;64590;48.81286795;9.14184224;2023-05-15T09:12:26;11.97;;;6.70;;
215;SDS011;64590;48.81286795;9.14184224;2023-05-15T09:15:06;11.20;;;7.00;;
215;SDS011;64590;48.81286795;9.14184224;2023-05-15T09:17:36;9.60;;;6.77;;
215;SDS011;64590;48.81286795;9.14184224;2023-05-15T09:20:10;13.53;;;6.77;;
215;SDS011;64590;48.81286795;9.14184224;2023-05-15T09:22:52;10.30;;;6.70;;
215;SDS011;64590;48.81286795;9.14184224;2023-05-15T09:28:09;12.53;;;7.23;;
215;SDS011;64590;48.81286795;9.14184224;2023-05-15T09:30:55;8.80;;;6.13;;
215;SDS011;64590;48.81286795;9.14184224;2023-05-15T09:33:26;11.20;;;6.97;;
215;SDS011;64590;48.81286795;9.14184224;2023-05-15T09:35:59;12.60;;;6.80;;
215;SDS011;64590;48.81286795;9.14184224;2023-05-15T09:38:31;12.20;;;7.27;;
215;SDS011;64590;48.81286795;9.14184224;2023-05-15T09:41:00;13.03;;;7.13;;
215;SDS011;64590;48.81286795;9.14184224;2023-05-15T09:43:33;13.47;;;6.53;;
215;SDS011;64590;48.81286795;9.14184224;2023-05-15T09:46:02;11.30;;;6.80;;
215;SDS011;64590;48.81286795;9.14184224;2023-05-15T09:48:33;9.30;;;6.60;;
215;SDS011;64590;48.81286795;9.14184224;2023-05-15T09:51:05;11.53;;;7.27;;
215;SDS011;64590;48.81286795;9.14184224;2023-05-15T09:53:42;12.43;;;7.07;;
215;SDS011;64590;48.81286795;9.14184224;2023-05-15T09:56:15;11.20;;;7.73;;
215;SDS011;64590;48.81286795;9.14184224;2023-05-15T09:58:53;12.60;;;8.20;;
215;SDS011;64590;48.81286795;9.14184224;2023-05-15T10:01:24;12.30;;;7.60;;
215;SDS011;64590;48.81286795;9.14184224;2023-05-15T10:03:56;12.00;;;7.50;;
215;SDS011;64590;48.81286795;9.14184224;2023-05-15T10:06:28;10.50;;;7.47;;
215;SDS011;64590;48.81286795;9.14184224;2023-05-15T10:09:05;13.10;;;7.00;;
215;SDS011;64590;48.81286795;9.14184224;2023-05-15T10:11:35;9.80;;;7.10;;
215;SDS011;64590;48.81286795;9.14184224;2023-05-15T10:14:04;10.60;;;7.80;;
215;SDS011;64590;48.81286795;9.14184224;2023-05-15T10:16:34;12.03;;;7.47;;
215;SDS011;64590;48.81286795;9.14184224;2023-05-15T10:19:04;10.17;;;7.10;;
215;SDS011;64590;48.81286795;9.14184224;2023-05-15T10:21:39;9.93;;;7.03;;
215;SDS011;64590;48.81286795;9.14184224;2023-05-15T10:24:11;11.20;;;7.10;;
215;SDS011;64590;48.81286795;9.14184224;2023-05-15T10:26:43;10.40;;;6.63;;
215;SDS011;64590;48.81286795;9.14184224;2023-05-15T10:29:12;9.20;;;6.80;;
215;SDS011;64590;48.81286795;9.14184224;2023-05-15T10:31:41;9.20;;;6.93;;
215;SDS011;64590;48.81286795;9.14184224;2023-05-15T10:34:11;7.83;;;6.20;;
215;SDS011;64590;48.81286795;9.14184224;2023-05-15T10:36:43;9.33;;;6.30;;
215;SDS011;64590;48.81286795;9.14184224;2023-05-15T10:39:12;12.70;;;6.10;;
215;SDS011;64590;48.81286795;9.14184224;2023-05-15T10:41:43;8.50;;;6.10;;
215;SDS011;64590;48.81286795;9.14184224;2023-05-15T10:44:12;8.97;;;6.07;;
215;SDS011;64590;48.81286795;9.14184224;2023-05-15T10:46:42;7.87;;;6.00;;
215;SDS011;64590;48.81286795;9.14184224;2023-05-15T10:49:11;7.60;;;6.17;;
215;SDS011;64590;48.81286795;9.14184224;2023-05-15T10:51:39;11.00;;;6.20;;
215;SDS011;64590;48.81286795;9.14184224;2023-05-15T10:54:11;7.53;;;5.77;;
215;SDS011;64590;48.81286795;9.14184224;2023-05-15T10:56:41;9.63;;;5.60;;
215;SDS011;64590;48.81286795;9.14184224;2023-05-15T10:59:10;8.37;;;5.60;;
215;SDS011;64590;48.81286795;9.14184224;2023-05-15T11:01:39;9.60;;;5.73;;
215;SDS011;64590;48.81286795;9.14184224;2023-05-15T11:04:11;8.87;;;5.30;;
215;SDS011;64590;48.81286795;9.14184224;2023-05-15T11:06:43;8.37;;;5.70;;
215;SDS011;64590;48.81286795;9.14184224;2023-05-15T11:12:06;9.40;;;6.03;;
215;SDS011;64590;48.81286795;9.14184224;2023-05-15T11:14:36;9.17;;;5.80;;
215;SDS011;64590;48.81286795;9.14184224;2023-05-15T11:17:07;8.00;;;5.87;;
215;SDS011;64590;48.81286795;9.14184224;2023-05-15T11:19:37;7.87;;;5.90;;
215;SDS011;64590;48.81286795;9.14184224;2023-05-15T11:22:27;8.47;;;5.63;;
215;SDS011;64590;48.81286795;9.14184224;2023-05-15T11:24:58;13.63;;;5.80;;
215;SDS011;64590;48.81286795;9.14184224;2023-05-15T11:27:28;9.30;;;5.60;;
215;SDS011;64590;48.81286795;9.14184224;2023-05-15T11:30:02;7.40;;;5.70;;
215;SDS011;64590;48.81286795;9.14184224;2023-05-15T11:32:41;11.03;;;6.03;;
215;SDS011;64590;48.81286795;9.14184224;2023-05-15T11:35:20;7.30;;;5.40;;
215;SDS011;64590;48.81286795;9.14184224;2023-05-15T11:37:53;8.40;;;5.40;;
215;SDS011;64590;48.81286795;9.14184224;2023-05-15T11:40:24;8.60;;;5.90;;
215;SDS011;64590;48.81286795;9.14184224;2023-05-15T11:42:57;8.20;;;5.57;;
215;SDS011;64590;48.81286795;9.14184224;2023-05-15T11:45:34;8.03;;;5.50;;
215;SDS011;64590;48.81286795;9.14184224;2023-05-15T11:48:05;8.73;;;5.80;;
215;SDS011;64590;48.81286795;9.14184224;2023-05-15T11:50:35;7.20;;;5.63;;
215;SDS011;64590;48.81286795;9.14184224;2023-05-15T11:53:07;8.97;;;5.43;;
215;SDS011;64590;48.81286795;9.14184224;2023-05-15T11:55:37;7.40;;;5.50;;
215;SDS011;64590;48.81286795;9.14184224;2023-05-15T11:58:11;8.23;;;5.93;;
215;SDS011;64590;48.81286795;9.14184224;2023-05-15T12:00:41;8.73;;;5.87;;
215;SDS011;64590;48.81286795;9.14184224;2023-05-15T12:03:13;9.50;;;5.97;;
215;SDS011;64590;48.81286795;9.14184224;2023-05-15T12:05:43;7.37;;;5.40;;
215;SDS011;64590;48.81286795;9.14184224;2023-05-15T12:08:14;9.73;;;5.93;;
215;SDS011;64590;48.81286795;9.14184224;2023-05-15T12:10:43;8.00;;;6.07;;
215;SDS011;64590;48.81286795;9.14184224;2023-05-15T12:13:13;9.27;;;5.93;;
215;SDS011;64590;48.81286795;9.14184224;2023-05-15T12:15:43;8.83;;;6.23;;
215;SDS011;64590;48.81286795;9.14184224;2023-05-15T12:18:16;9.07;;;6.03;;
215;SDS011;64590;48.81286795;9.14184224;2023-05-15T12:20:44;9.20;;;6.00;;
215;SDS011;64590;48.81286795;9.14184224;2023-05-15T12:23:16;9.37;;;5.60;;
215;SDS011;64590;48.81286795;9.14184224;2023-05-15T12:25:48;9.63;;;5.43;;
215;SDS011;64590;48.81286795;9.14184224;2023-05-15T12:28:19;8.60;;;5.77;;
215;SDS011;64590;48.81286795;9.14184224;2023-05-15T12:30:48;10.47;;;5.50;;
215;SDS011;64590;48.81286795;9.14184224;2023-05-15T12:33:17;7.80;;;5.60;;
215;SDS011;64590;48.81286795;9.14184224;2023-05-15T12:35:48;11.03;;;6.00;;
215;SDS011;64590;48.81286795;9.14184224;2023-05-15T12:38:23;15.23;;;6.90;;
215;SDS011;64590;48.81286795;9.14184224;2023-05-15T12:40:51;13.03;;;6.47;;
215;SDS011;64590;48.81286795;9.14184224;2023-05-15T12:43:22;7.47;;;6.00;;
215;SDS011;64590;48.81286795;9.14184224;2023-05-15T12:45:52;8.83;;;5.67;;
215;SDS011;64590;48.81286795;9.14184224;2023-05-15T12:48:21;8.20;;;5.50;;
215;SDS011;64590;48.81286795;9.14184224;2023-05-15T12:50:49;9.60;;;6.10;;
215;SDS011;64590;48.81286795;9.14184224;2023-05-15T12:53:19;9.67;;;5.80;;
215;SDS011;64590;48.81286795;9.14184224;2023-05-15T12:55:51;9.23;;;6.00;;
215;SDS011;64590;48.81286795;9.14184224;2023-05-15T12:58:19;9.77;;;5.60;;
215;SDS011;64590;48.81286795;9.14184224;2023-05-15T13:00:47;8.43;;;5.70;;
215;SDS011;64590;48.81286795;9.14184224;2023-05-15T13:03:19;9.90;;;5.60;;
215;SDS011;64590;48.81286795;9.14184224;2023-05-15T13:05:48;10.50;;;5.93;;
215;SDS011;64590;48.81286795;9.14184224;2023-05-15T13:08:18;12.30;;;5.77;;
215;SDS011;64590;48.81286795;9.14184224;2023-05-15T13:10:54;8.10;;;6.27;;
215;SDS011;64590;48.81286795;9.14184224;2023-05-15T13:13:27;8.30;;;6.30;;
215;SDS011;64590;48.81286795;9.14184224;2023-05-15T13:16:19;8.50;;;6.57;;
215;SDS011;64590;48.81286795;9.14184224;2023-05-15T13:18:51;8.57;;;6.40;;
215;SDS011;64590;48.81286795;9.14184224;2023-05-15T13:21:20;9.93;;;6.40;;
215;SDS011;64590;48.81286795;9.14184224;2023-05-15T13:23:48;7.83;;;6.23;;
215;SDS011;64590;48.81286795;9.14184224;2023-05-15T13:26:20;8.20;;;6.33;;
215;SDS011;64590;48.81286795;9.14184224;2023-05-15T13:28:48;8.73;;;7.07;;
215;SDS011;64590;48.81286795;9.14184224;2023-05-15T13:31:17;9.83;;;6.83;;
215;SDS011;64590;48.81286795;9.14184224;2023-05-15T13:33:45;8.10;;;6.40;;
215;SDS011;64590;48.81286795;9.14184224;2023-05-15T13:36:16;9.27;;;7.20;;
215;SDS011;64590;48.81286795;9.14184224;2023-05-15T13:38:44;11.37;;;7.80;;
215;SDS011;64590;48.81286795;9.14184224;2023-05-15T13:41:12;9.80;;;7.20;;
215;SDS011;64590;48.81286795;9.14184224;2023-05-15T13:43:43;10.27;;;7.73;;
215;SDS011;64590;48.81286795;9.14184224;2023-05-15T13:46:13;13.37;;;7.37;;
215;SDS011;64590;48.81286795;9.14184224;2023-05-15T13:48:42;11.40;;;7.37;;
215;SDS011;64590;48.81286795;9.14184224;2023-05-15T13:51:10;13.37;;;9.23;;
215;SDS011;64590;48.81286795;9.14184224;2023-05-15T13:53:40;12.63;;;8.20;;
215;SDS011;64590;48.81286795;9.14184224;2023-05-15T13:56:09;13.77;;;7.47;;
215;SDS011;64590;48.81286795;9.14184224;2023-05-15T13:58:37;10.20;;;7.50;;
215;SDS011;64590;48.81286795;9.14184224;2023-05-15T14:01:09;11.00;;;8.15;;
215;SDS011;64590;48.81286795;9.14184224;2023-05-15T14:03:37;9.57;;;7.70;;
215;SDS011;64590;48.81286795;9.14184224;2023-05-15T14:06:06;12.30;;;8.10;;
215;SDS011;64590;48.81286795;9.14184224;2023-05-15T14:08:34;11.60;;;7.73;;
215;SDS011;64590;48.81286795;9.14184224;2023-05-15T14:11:04;9.90;;;7.13;;
215;SDS011;64590;48.81286795;9.14184224;2023-05-15T14:13:33;12.60;;;7.30;;
215;SDS011;64590;48.81286795;9.14184224;2023-05-15T14:16:01;10.37;;;7.53;;
215;SDS011;64590;48.81286795;9.14184224;2023-05-15T14:18:32;10.40;;;7.67;;
215;SDS011;64590;48.81286795;9.14184224;2023-05-15T14:21:01;9.10;;;7.27;;
215;SDS011;64590;48.81286795;9.14184224;2023-05-15T14:23:29;12.37;;;7.17;;
215;SDS011;64590;48.81286795;9.14184224;2023-05-15T14:25:57;12.27;;;7.47;;
215;SDS011;64590;48.81286795;9.14184224;2023-05-15T14:28:26;12.53;;;8.17;;
215;SDS011;64590;48.81286795;9.14184224;2023-05-15T14:30:54;9.57;;;7.33;;
215;SDS011;64590;48.81286795;9.14184224;2023-05-15T14:33:22;10.13;;;7.60;;
215;SDS011;64590;48.81286795;9.14184224;2023-05-15T14:35:53;12.37;;;8.27;;
215;SDS011;64590;48.81286795;9.14184224;2023-05-15T14:38:22;10.37;;;8.00;;
215;SDS011;64590;48.81286795;9.14184224;2023-05-15T14:40:50;9.80;;;7.00;;
215;SDS011;64590;48.81286795;9.14184224;2023-05-15T14:43:19;10.27;;;7.40;;
215;SDS011;64590;48.81286795;9.14184224;2023-05-15T14:45:49;10.00;;;7.40;;
215;SDS011;64590;48.81286795;9.14184224;2023-05-15T14:48:18;10.50;;;8.10;;
215;SDS011;64590;48.81286795;9.14184224;2023-05-15T14:50:49;12.47;;;7.63;;
215;SDS011;64590;48.81286795;9.14184224;2023-05-15T14:53:20;10.17;;;8.13;;